createdAt,value
2023-04-15T03:28:10.171Z,98031.06
2023-04-15T03:29:15.384Z,98021.81
2023-04-15T03:30:20.593Z,98030.16
2023-04-15T03:31:25.892Z,98026.55
2023-04-15T03:32:31.225Z,98034.98
2023-04-15T03:33:36.441Z,98019.55
2023-04-15T03:34:41.636Z,98016.68
2023-04-15T03:35:46.805Z,98020.08
2023-04-15T03:36:52.017Z,98022.53
2023-04-15T03:37:57.278Z,98033.34
2023-04-15T03:39:02.858Z,98024.63
2023-04-15T03:40:08.235Z,98027.58
2023-04-15T03:41:13.421Z,98030.59
2023-04-15T03:42:18.638Z,98038.91
2023-04-15T03:43:23.831Z,98035.61
2023-04-15T03:44:29.002Z,98035.42
2023-04-15T03:45:34.321Z,98037.16
2023-04-15T03:46:39.630Z,98039.16
2023-04-15T03:47:44.977Z,98041.52
2023-04-15T03:48:50.194Z,98041.18
2023-04-15T03:49:55.387Z,98044.91
2023-04-15T03:51:00.572Z,98054.5
2023-04-15T03:52:05.786Z,98052.82
2023-04-15T03:53:10.991Z,98057.05
2023-04-15T03:54:16.206Z,98063.94
2023-04-15T03:55:21.397Z,98064.99
2023-04-15T03:56:26.594Z,98064.87
2023-04-15T03:57:31.829Z,98066.73
2023-04-15T03:58:37.030Z,98059.86
2023-04-15T03:59:42.211Z,98067.14
2023-04-15T04:00:47.414Z,98065.92
2023-04-15T04:01:52.706Z,98070.63
2023-04-15T04:02:58.486Z,98070.84
2023-04-15T04:04:04.431Z,98072.37
2023-04-15T04:05:09.837Z,98072.5
2023-04-15T04:06:15.025Z,98080.12
2023-04-15T04:07:20.242Z,98077.44
2023-04-15T04:08:25.442Z,98076.85
2023-04-15T04:09:30.658Z,98082.08
2023-04-15T04:10:35.853Z,98078.06
2023-04-15T04:11:41.094Z,98076.45
2023-04-15T04:12:46.385Z,98082.48
2023-04-15T04:13:51.602Z,98083.83
2023-04-15T04:14:56.811Z,98080.06
2023-04-15T04:16:02.225Z,98079.63
2023-04-15T04:17:07.790Z,98074.05
2023-04-15T04:18:13.196Z,98071.31
2023-04-15T04:19:18.431Z,98073.98
2023-04-15T04:20:23.614Z,98081.27
2023-04-15T04:21:28.812Z,98080.86
2023-04-15T04:22:33.978Z,98088.18
2023-04-15T04:23:39.165Z,98084.57
2023-04-15T04:24:44.376Z,98084.29
2023-04-15T04:25:49.558Z,98085.72
2023-04-15T04:26:54.732Z,98087.37
2023-04-15T04:27:59.916Z,98084.1
2023-04-15T04:29:05.412Z,98086.22
2023-04-15T04:30:10.617Z,98087.25
2023-04-15T04:31:15.784Z,98085.63
2023-04-15T04:32:21.030Z,98097.55
2023-04-15T04:33:26.232Z,98097.67
2023-04-15T04:34:31.413Z,98095.41
2023-04-15T04:35:36.595Z,98096.33
2023-04-15T04:36:41.819Z,98098.61
2023-04-15T04:37:47.016Z,98102.09
2023-04-15T04:38:52.256Z,98094.59
2023-04-15T04:39:57.465Z,98097.89
2023-04-15T04:41:02.696Z,98100.34
2023-04-15T04:42:07.977Z,98100.34
2023-04-15T04:43:13.215Z,98100.34
2023-04-15T04:44:18.409Z,98093.06
2023-04-15T04:45:23.677Z,98093.47
2023-04-15T04:46:28.881Z,98091.6
2023-04-15T04:47:34.176Z,98090.58
2023-04-15T04:48:39.443Z,98092.53
2023-04-15T04:49:44.646Z,98086.06
2023-04-15T04:50:49.996Z,98097.98
2023-04-15T04:51:55.437Z,98098.82
2023-04-15T04:53:00.662Z,98094.22
2023-04-15T04:54:05.935Z,98102.44
2023-04-15T04:55:11.131Z,98092.62
2023-04-15T04:56:16.394Z,98095.24
2023-04-15T04:57:21.624Z,98101.31
2023-04-15T04:58:26.813Z,98099.78
2023-04-15T04:59:32.082Z,98103.98
2023-04-15T05:00:37.316Z,98103.45
2023-04-15T05:01:42.600Z,98102.13
2023-04-15T05:02:48.506Z,98106.13
2023-04-15T05:03:54.427Z,98107.88
2023-04-15T05:04:59.809Z,98104.2
2023-04-15T05:06:04.991Z,98108.41
2023-04-15T05:07:10.173Z,98099.16
2023-04-15T05:08:15.386Z,98109.87
2023-04-15T05:09:20.589Z,98106.75
2023-04-15T05:10:25.809Z,98098.13
2023-04-15T05:11:30.999Z,98104.08
2023-04-15T05:12:36.220Z,98106.75
2023-04-15T05:13:41.411Z,98109.96
2023-04-15T05:14:46.575Z,98109.56
2023-04-15T05:15:51.846Z,98103.7
2023-04-15T05:16:57.137Z,98101.87
2023-04-15T05:18:02.427Z,98109.56
2023-04-15T05:19:07.782Z,98112.77
2023-04-15T05:20:13.016Z,98114.1
2023-04-15T05:21:18.224Z,98112.05
2023-04-15T05:22:23.408Z,98118.12
2023-04-15T05:23:28.630Z,98117.18
2023-04-15T05:24:33.861Z,98115.25
2023-04-15T05:25:39.081Z,98125.3
2023-04-15T05:26:44.343Z,98117.92
2023-04-15T05:27:49.589Z,98126.64
2023-04-15T05:28:54.776Z,98126.14
2023-04-15T05:30:00.006Z,98123.06
2023-04-15T05:31:05.586Z,98129.75
2023-04-15T05:32:10.878Z,98126.14
2023-04-15T05:33:16.061Z,98123.16
2023-04-15T05:34:21.230Z,98124.5
2023-04-15T05:35:26.446Z,98124.09
2023-04-15T05:36:31.648Z,98123.06
2023-04-15T05:37:36.828Z,98120.6
2023-04-15T05:38:42.050Z,98127.48
2023-04-15T05:39:47.233Z,98124.41
2023-04-15T05:40:52.437Z,98125.21
2023-04-15T05:41:57.658Z,98133.12
2023-04-15T05:43:02.859Z,98128.3
2023-04-15T05:44:08.048Z,98126.83
2023-04-15T05:45:13.197Z,98127.98
2023-04-15T05:46:18.486Z,98129.1
2023-04-15T05:47:23.893Z,98127.36
2023-04-15T05:48:29.276Z,98125.21
2023-04-15T05:49:34.498Z,98133.24
2023-04-15T05:50:39.702Z,98128.82
2023-04-15T05:51:44.924Z,98131.91
2023-04-15T05:52:50.155Z,98129.1
2023-04-15T05:53:55.345Z,98130.25
2023-04-15T05:55:00.552Z,98123.28
2023-04-15T05:56:05.727Z,98125.62
2023-04-15T05:57:10.935Z,98126.36
2023-04-15T05:58:16.137Z,98129.56
2023-04-15T05:59:21.338Z,98120.08
2023-04-15T06:00:26.544Z,98123.34
2023-04-15T06:01:31.737Z,98121.07
2023-04-15T06:02:37.147Z,98119.95
2023-04-15T06:03:42.946Z,98123.47
2023-04-15T06:04:48.619Z,98124.41
2023-04-15T06:05:53.913Z,98120.58
2023-04-15T06:06:59.122Z,98124.5
2023-04-15T06:08:04.364Z,98129.95
2023-04-15T06:09:09.577Z,98128.17
2023-04-15T06:10:14.808Z,98133.52
2023-04-15T06:11:20.011Z,98135.92
2023-04-15T06:12:25.178Z,98141.55
2023-04-15T06:13:30.377Z,98136.85
2023-04-15T06:14:35.594Z,98141.67
2023-04-15T06:15:40.783Z,98146
2023-04-15T06:16:46.000Z,98141.27
2023-04-15T06:17:51.264Z,98146.41
2023-04-15T06:18:56.648Z,98139.53
2023-04-15T06:20:01.866Z,98138.78
2023-04-15T06:21:07.046Z,98144.52
2023-04-15T06:22:12.228Z,98144.11
2023-04-15T06:23:17.520Z,98145.33
2023-04-15T06:24:22.700Z,98149.94
2023-04-15T06:25:27.884Z,98151.16
2023-04-15T06:26:33.102Z,98148.79
2023-04-15T06:27:38.291Z,98150.53
2023-04-15T06:28:43.634Z,98152.8
2023-04-15T06:29:48.881Z,98150.13
2023-04-15T06:30:54.115Z,98154.02
2023-04-15T06:31:59.393Z,98145.98
2023-04-15T06:33:04.797Z,98144.89
2023-04-15T06:34:09.980Z,98146.52
2023-04-15T06:35:15.288Z,98150
2023-04-15T06:36:20.608Z,98146.64
2023-04-15T06:37:25.828Z,98148.38
2023-04-15T06:38:31.029Z,98150.84
2023-04-15T06:39:36.224Z,98145.89
2023-04-15T06:40:41.446Z,98150.44
2023-04-15T06:41:46.629Z,98144.25
2023-04-15T06:42:51.813Z,98150.72
2023-04-15T06:43:57.103Z,98148.66
2023-04-15T06:45:02.280Z,98156.48
2023-04-15T06:46:07.791Z,98150.63
2023-04-15T06:47:13.144Z,98155.45
2023-04-15T06:48:18.351Z,98159.47
2023-04-15T06:49:23.577Z,98158.13
2023-04-15T06:50:28.781Z,98157.54
2023-04-15T06:51:34.111Z,98157.82
2023-04-15T06:52:39.278Z,98159.47
2023-04-15T06:53:44.484Z,98161.22
2023-04-15T06:54:49.757Z,98162.95
2023-04-15T06:55:57.486Z,98161.09
2023-04-15T06:57:02.674Z,98159.16
2023-04-15T06:58:07.875Z,98166.35
2023-04-15T06:59:13.042Z,98165.02
2023-04-15T07:00:18.238Z,98170.77
2023-04-15T07:01:23.478Z,98169.84
2023-04-15T07:02:28.858Z,98167.38
2023-04-15T07:03:34.471Z,98173.33
2023-04-15T07:04:39.865Z,98165.23
2023-04-15T07:05:45.283Z,98167.5
2023-04-15T07:06:50.510Z,98172.52
2023-04-15T07:07:55.822Z,98177.59
2023-04-15T07:09:01.574Z,98177.88
2023-04-15T07:10:07.460Z,98181.36
2023-04-15T07:11:12.763Z,98184.35
2023-04-15T07:12:18.082Z,98180.95
2023-04-15T07:13:23.303Z,98186.91
2023-04-15T07:14:28.510Z,98186.91
2023-04-15T07:15:33.673Z,98190.11
2023-04-15T07:16:38.987Z,98194.84
2023-04-15T07:17:44.497Z,98195.25
2023-04-15T07:18:49.776Z,98197
2023-04-15T07:19:55.000Z,98191.77
2023-04-15T07:21:00.252Z,98197.71
2023-04-15T07:22:05.460Z,98193.38
2023-04-15T07:23:10.695Z,98196.25
2023-04-15T07:24:15.890Z,98192.58
2023-04-15T07:25:21.093Z,98197.71
2023-04-15T07:26:26.351Z,98192.64
2023-04-15T07:27:31.738Z,98201.08
2023-04-15T07:28:36.992Z,98192.86
2023-04-15T07:29:42.198Z,98202.02
2023-04-15T07:30:47.439Z,98192.64
2023-04-15T07:31:52.762Z,98200.8
2023-04-15T07:32:58.397Z,98200.86
2023-04-15T07:34:03.728Z,98200.27
2023-04-15T07:35:08.948Z,98201.39
2023-04-15T07:36:14.280Z,98206.74
2023-04-15T07:37:21.900Z,98201.27
2023-04-15T07:38:27.364Z,98211.88
2023-04-15T07:39:32.694Z,98200.98
2023-04-15T07:40:38.079Z,98198
2023-04-15T07:41:43.352Z,98176.11
2023-04-15T07:42:48.554Z,98201.58
2023-04-15T07:43:53.941Z,98207.34
2023-04-15T07:44:59.356Z,98208.89
2023-04-15T07:46:05.152Z,98207.75
2023-04-15T07:47:10.532Z,98214.44
2023-04-15T07:48:15.836Z,98208.68
2023-04-15T07:49:21.088Z,98207.75
2023-04-15T07:50:26.311Z,98207.66
2023-04-15T07:51:31.706Z,98204.78
2023-04-15T07:52:36.931Z,98208.99
2023-04-15T07:53:42.158Z,98207.66
2023-04-15T07:54:47.457Z,98212.48
2023-04-15T07:55:52.721Z,98213.2
2023-04-15T07:56:57.950Z,98213.08
2023-04-15T07:58:03.230Z,98210.8
2023-04-15T07:59:08.517Z,98196.25
2023-04-15T08:00:13.822Z,98208.34
2023-04-15T08:01:19.112Z,98207.84
2023-04-15T08:02:24.942Z,98214.2
2023-04-15T08:03:30.553Z,98214.08
2023-04-15T08:04:36.481Z,98215.82
2023-04-15T08:05:42.374Z,98211.52
2023-04-15T08:06:47.616Z,98209.87
2023-04-15T08:07:52.922Z,98215.23
2023-04-15T08:08:58.264Z,98215.61
2023-04-15T08:10:03.909Z,98225.91
2023-04-15T08:11:09.144Z,98218.81
2023-04-15T08:12:14.522Z,98216.13
2023-04-15T08:13:19.873Z,98215.61
2023-04-15T08:14:25.079Z,98214.27
2023-04-15T08:15:30.394Z,98211.4
2023-04-15T08:16:35.689Z,98216.85
2023-04-15T08:17:41.196Z,98215.67
2023-04-15T08:18:46.574Z,98222.89
2023-04-15T08:19:51.804Z,98221.47
2023-04-15T08:20:57.013Z,98217.75
2023-04-15T08:22:02.332Z,98226.22
2023-04-15T08:23:07.540Z,98222.42
2023-04-15T08:24:12.764Z,98223.95
2023-04-15T08:25:18.001Z,98221.17
2023-04-15T08:26:23.184Z,98222.7
2023-04-15T08:27:28.443Z,98219.84
2023-04-15T08:28:33.629Z,98217.07
2023-04-15T08:29:38.934Z,98214.58
2023-04-15T08:30:44.113Z,98219.22
2023-04-15T08:31:49.451Z,98221.37
2023-04-15T08:32:54.931Z,98225.29
2023-04-15T08:34:00.232Z,98222.3
2023-04-15T08:35:05.542Z,98214.27
2023-04-15T08:36:10.978Z,98220.34
2023-04-15T08:37:16.434Z,98220
2023-04-15T08:38:21.726Z,98217.54
2023-04-15T08:39:26.915Z,98223.08
2023-04-15T08:40:32.142Z,98221.88
2023-04-15T08:41:37.374Z,98225.58
2023-04-15T08:42:44.979Z,98228.26
2023-04-15T08:43:50.289Z,98220.72
2023-04-15T08:44:55.520Z,98227.64
2023-04-15T08:46:00.712Z,98224.12
2023-04-15T08:47:06.133Z,98217.11
2023-04-15T08:48:11.630Z,98220.41
2023-04-15T08:49:16.914Z,98221.34
2023-04-15T08:50:22.418Z,98220.94
2023-04-15T08:51:27.655Z,98207.14
2023-04-15T08:52:32.858Z,98214.44
2023-04-15T08:53:38.031Z,98222.88
2023-04-15T08:54:43.208Z,98219.79
2023-04-15T08:55:48.667Z,98220.07
2023-04-15T08:56:53.998Z,98220.38
2023-04-15T08:57:59.314Z,98211.82
2023-04-15T08:59:04.842Z,98219.73
2023-04-15T09:00:10.156Z,98206.53
2023-04-15T09:01:15.521Z,98212.48
2023-04-15T09:02:21.120Z,98219.05
2023-04-15T09:03:26.608Z,98219.05
2023-04-15T09:04:31.987Z,98216.87
2023-04-15T09:05:37.280Z,98213.6
2023-04-15T09:06:42.620Z,98214.53
2023-04-15T09:07:48.017Z,98211.27
2023-04-15T09:08:53.300Z,98220.42
2023-04-15T09:09:58.547Z,98213.13
2023-04-15T09:11:03.835Z,98218.3
2023-04-15T09:12:09.161Z,98219.02
2023-04-15T09:13:14.623Z,98214.34
2023-04-15T09:14:19.942Z,98215.16
2023-04-15T09:15:25.163Z,98204.23
2023-04-15T09:16:30.394Z,98219.34
2023-04-15T09:17:35.826Z,98208.13
2023-04-15T09:18:41.217Z,98204.32
2023-04-15T09:19:46.488Z,98204.52
2023-04-15T09:20:51.814Z,98204.2
2023-04-15T09:21:59.984Z,98201.89
2023-04-15T09:23:05.275Z,98205.38
2023-04-15T09:24:10.454Z,98207.75
2023-04-15T09:25:15.669Z,98202.83
2023-04-15T09:26:20.904Z,98207.31
2023-04-15T09:27:26.161Z,98202.8
2023-04-15T09:28:31.622Z,98201.95
2023-04-15T09:29:36.966Z,98207.22
2023-04-15T09:30:42.299Z,98202.39
2023-04-15T09:31:47.528Z,98193.42
2023-04-15T09:32:52.817Z,98201.05
2023-04-15T09:33:58.203Z,98208.09
2023-04-15T09:35:03.917Z,98197.38
2023-04-15T09:36:09.187Z,98195.54
2023-04-15T09:37:32.263Z,98202.52
2023-04-15T09:38:37.757Z,98196.04
2023-04-15T09:39:43.045Z,98202.92
2023-04-15T09:40:48.366Z,98207.38
2023-04-15T09:41:53.679Z,98200.77
2023-04-15T09:42:58.957Z,98196.38
2023-04-15T09:44:04.391Z,98195.04
2023-04-15T09:45:09.625Z,98197.72
2023-04-15T09:46:14.906Z,98195.98
2023-04-15T09:47:20.289Z,98194.86
2023-04-15T09:48:25.543Z,98194.45
2023-04-15T09:49:30.912Z,98197.13
2023-04-15T09:50:36.225Z,98200.34
2023-04-15T09:51:43.364Z,98197.44
2023-04-15T09:53:05.341Z,98189.5
2023-04-15T09:54:10.607Z,98190.96
2023-04-15T09:55:15.812Z,98196.19
2023-04-15T09:56:21.053Z,98194.88
2023-04-15T09:57:26.301Z,98196.94
2023-04-15T09:58:31.510Z,98195.07
2023-04-15T09:59:36.758Z,98193.64
2023-04-15T10:00:41.948Z,98194.98
2023-04-15T10:01:47.394Z,98184.61
2023-04-15T10:02:53.395Z,98191.98
2023-04-15T10:03:59.170Z,98196.6
2023-04-15T10:05:04.848Z,98190.55
2023-04-15T10:06:10.123Z,98183.8
2023-04-15T10:07:15.335Z,98189.34
2023-04-15T10:08:20.549Z,98194.42
2023-04-15T10:09:25.825Z,98193.3
2023-04-15T10:10:31.104Z,98188.38
2023-04-15T10:11:36.296Z,98193.64
2023-04-15T10:12:41.560Z,98197.13
2023-04-15T10:13:46.787Z,98195.91
2023-04-15T10:14:51.977Z,98196.01
2023-04-15T10:15:57.286Z,98193.55
2023-04-15T10:17:02.569Z,98193.45
2023-04-15T10:18:07.817Z,98194.73
2023-04-15T10:19:13.106Z,98198.62
2023-04-15T10:20:18.306Z,98196.13
2023-04-15T10:21:23.539Z,98196.23
2023-04-15T10:22:28.731Z,98195.41
2023-04-15T10:23:33.984Z,98203.86
2023-04-15T10:24:39.187Z,98192.55
2023-04-15T10:25:44.399Z,98201.83
2023-04-15T10:26:49.645Z,98189.06
2023-04-15T10:27:54.834Z,98191.52
2023-04-15T10:29:01.428Z,98197.63
2023-04-15T10:30:06.611Z,98203.67
2023-04-15T10:31:11.893Z,98193.39
2023-04-15T10:32:17.143Z,98185.16
2023-04-15T10:33:22.360Z,98194.3
2023-04-15T10:34:27.578Z,98191.2
2023-04-15T10:35:32.787Z,98194.82
2023-04-15T10:36:37.976Z,98188.53
2023-04-15T10:37:43.231Z,98192.14
2023-04-15T10:38:48.492Z,98194.82
2023-04-15T10:39:53.763Z,98189.81
2023-04-15T10:40:58.983Z,98191.67
2023-04-15T10:42:04.220Z,98190.52
2023-04-15T10:43:09.420Z,98195.37
2023-04-15T10:44:14.620Z,98193.3
2023-04-15T10:45:19.815Z,98193.27
2023-04-15T10:46:25.415Z,98195.81
2023-04-15T10:47:30.815Z,98201.17
2023-04-15T10:48:36.098Z,98196.16
2023-04-15T10:49:41.336Z,98201.3
2023-04-15T10:50:49.377Z,98195.88
2023-04-15T10:51:54.685Z,98190.83
2023-04-15T10:52:59.912Z,98193.48
2023-04-15T10:54:05.623Z,98201.23
2023-04-15T10:55:11.189Z,98200.7
2023-04-15T10:56:16.407Z,98203.8
2023-04-15T10:57:21.582Z,98205.34
2023-04-15T10:58:26.873Z,98202.8
2023-04-15T10:59:34.040Z,98204.54
2023-04-15T11:00:39.304Z,98201.45
2023-04-15T11:01:44.584Z,98201.64
2023-04-15T11:02:50.352Z,98198.38
2023-04-15T11:03:56.187Z,98198.12
2023-04-15T11:05:02.073Z,98207.41
2023-04-15T11:06:07.430Z,98205.88
2023-04-15T11:07:12.822Z,98203.8
2023-04-15T11:08:18.057Z,98209.03
2023-04-15T11:09:23.285Z,98200.49
2023-04-15T11:10:28.468Z,98202.77
2023-04-15T11:11:33.686Z,98200.52
2023-04-15T11:12:39.136Z,98192.89
2023-04-15T11:13:44.663Z,98200.7
2023-04-15T11:14:49.914Z,98208.74
2023-04-15T11:15:55.162Z,98201.52
2023-04-15T11:17:00.469Z,98206.47
2023-04-15T11:18:05.796Z,98204.91
2023-04-15T11:19:11.034Z,98195.13
2023-04-15T11:20:16.434Z,98198.96
2023-04-15T11:21:21.727Z,98206.04
2023-04-15T11:22:26.936Z,98204.98
2023-04-15T11:23:32.145Z,98207.03
2023-04-15T11:24:37.352Z,98202.61
2023-04-15T11:25:42.636Z,98208.25
2023-04-15T11:26:48.296Z,98207.75
2023-04-15T11:27:55.793Z,98208.25
2023-04-15T11:29:00.969Z,98206.81
2023-04-15T11:30:06.473Z,98205.07
2023-04-15T11:31:11.713Z,98204.17
2023-04-15T11:32:17.095Z,98212.48
2023-04-15T11:33:22.721Z,98213.14
2023-04-15T11:34:28.394Z,98208.47
2023-04-15T11:35:33.757Z,98205.38
2023-04-15T11:36:39.081Z,98210.24
2023-04-15T11:37:44.401Z,98218.03
2023-04-15T11:38:49.606Z,98212.98
2023-04-15T11:39:54.808Z,98222.58
2023-04-15T11:41:00.164Z,98211.58
2023-04-15T11:42:05.366Z,98216.1
2023-04-15T11:43:10.588Z,98212.73
2023-04-15T11:44:15.837Z,98216.22
2023-04-15T11:45:21.085Z,98219.3
2023-04-15T11:46:26.281Z,98221.98
2023-04-15T11:47:31.530Z,98226.01
2023-04-15T11:48:36.770Z,98217.25
2023-04-15T11:49:43.191Z,98211.7
2023-04-15T11:50:48.406Z,98216.22
2023-04-15T11:51:53.577Z,98214.88
2023-04-15T11:52:58.801Z,98217.03
2023-04-15T11:54:04.594Z,98218.88
2023-04-15T11:55:10.189Z,98217.13
2023-04-15T11:56:15.401Z,98222.64
2023-04-15T11:57:20.618Z,98213.27
2023-04-15T11:58:25.844Z,98220.28
2023-04-15T11:59:46.129Z,98217.91
2023-04-15T12:00:51.461Z,98221.27
2023-04-15T12:01:56.783Z,98220.06
2023-04-15T12:03:02.433Z,98221.74
2023-04-15T12:04:08.885Z,98220.62
2023-04-15T12:05:15.072Z,98217.63
2023-04-15T12:06:20.596Z,98220.09
2023-04-15T12:07:25.854Z,98223.7
2023-04-15T12:08:31.305Z,98220.96
2023-04-15T12:09:36.622Z,98218.37
2023-04-15T12:10:41.908Z,98228.47
2023-04-15T12:11:47.396Z,98228.06
2023-04-15T12:12:52.829Z,98229.28
2023-04-15T12:13:58.118Z,98225.29
2023-04-15T12:15:03.600Z,98226.13
2023-04-15T12:16:09.327Z,98228.09
2023-04-15T12:17:14.921Z,98227.69
2023-04-15T12:18:20.427Z,98230.55
2023-04-15T12:19:25.828Z,98229.95
2023-04-15T12:20:31.183Z,98234.26
2023-04-15T12:21:36.452Z,98229.03
2023-04-15T12:22:41.662Z,98228.91
2023-04-15T12:23:46.864Z,98232.23
2023-04-15T12:24:52.049Z,98227.16
2023-04-15T12:25:57.269Z,98230.05
2023-04-15T12:27:02.676Z,98229.84
2023-04-15T12:28:07.970Z,98234.59
2023-04-15T12:29:13.190Z,98233.05
2023-04-15T12:30:18.494Z,98237.16
2023-04-15T12:31:23.844Z,98229.23
2023-04-15T12:32:29.295Z,98231.39
2023-04-15T12:33:34.689Z,98231.52
2023-04-15T12:34:39.996Z,98232.11
2023-04-15T12:35:45.220Z,98228.22
2023-04-15T12:36:50.410Z,98226.22
2023-04-15T12:37:55.646Z,98229.43
2023-04-15T12:39:00.900Z,98225.81
2023-04-15T12:40:06.080Z,98229.3
2023-04-15T12:41:11.298Z,98229.84
2023-04-15T12:42:16.518Z,98228.71
2023-04-15T12:43:21.838Z,98226.22
2023-04-15T12:44:27.090Z,98228.31
2023-04-15T12:45:32.316Z,98230.77
2023-04-15T12:46:37.680Z,98233.05
2023-04-15T12:47:42.985Z,98227.38
2023-04-15T12:48:48.330Z,98221.83
2023-04-15T12:49:53.571Z,98227.91
2023-04-15T12:50:58.777Z,98223.48
2023-04-15T12:52:04.000Z,98228.43
2023-04-15T12:53:09.233Z,98226.5
2023-04-15T12:54:14.507Z,98229.36
2023-04-15T12:55:19.705Z,98227.09
2023-04-15T12:56:24.918Z,98226.16
2023-04-15T12:57:30.116Z,98225.25
2023-04-15T12:58:35.318Z,98228.43
2023-04-15T12:59:40.544Z,98232.14
2023-04-15T13:00:45.760Z,98233.48
2023-04-15T13:01:51.163Z,98230.39
2023-04-15T13:02:56.895Z,98223.51
2023-04-15T13:04:02.431Z,98230.39
2023-04-15T13:05:08.192Z,98225.34
2023-04-15T13:06:13.471Z,98224.29
2023-04-15T13:07:18.673Z,98233.58
2023-04-15T13:08:23.848Z,98233.98
2023-04-15T13:09:29.027Z,98231.05
2023-04-15T13:10:34.241Z,98232.64
2023-04-15T13:11:39.454Z,98225.81
2023-04-15T13:12:44.716Z,98235.26
2023-04-15T13:13:49.907Z,98232.67
2023-04-15T13:14:55.081Z,98232.02
2023-04-15T13:16:00.337Z,98230.47
2023-04-15T13:17:05.602Z,98235.33
2023-04-15T13:18:10.780Z,98236.55
2023-04-15T13:19:16.008Z,98228.72
2023-04-15T13:20:21.223Z,98228.91
2023-04-15T13:21:26.430Z,98235.52
2023-04-15T13:22:31.654Z,98228.28
2023-04-15T13:23:37.141Z,98231.06
2023-04-15T13:24:42.448Z,98228.19
2023-04-15T13:25:47.647Z,98234.7
2023-04-15T13:26:52.830Z,98228.06
2023-04-15T13:27:58.000Z,98232.48
2023-04-15T13:29:03.279Z,98228.69
2023-04-15T13:30:08.585Z,98229.81
2023-04-15T13:31:13.834Z,98227.34
2023-04-15T13:32:19.132Z,98232.83
2023-04-15T13:33:24.381Z,98231.58
2023-04-15T13:34:29.573Z,98232.92
2023-04-15T13:35:34.750Z,98227.03
2023-04-15T13:36:40.110Z,98225.81
2023-04-15T13:37:45.406Z,98233.3
2023-04-15T13:38:52.759Z,98231.73
2023-04-15T13:39:57.959Z,98238.63
2023-04-15T13:41:03.298Z,98226.97
2023-04-15T13:42:08.502Z,98228.5
2023-04-15T13:43:13.697Z,98229.91
2023-04-15T13:44:20.377Z,98231.84
2023-04-15T13:45:26.746Z,98232.68
2023-04-15T13:46:32.014Z,98225.7
2023-04-15T13:47:37.242Z,98236.66
2023-04-15T13:48:42.679Z,98230.47
2023-04-15T13:49:47.928Z,98236.35
2023-04-15T13:50:53.124Z,98232.86
2023-04-15T13:51:58.375Z,98232.77
2023-04-15T13:53:03.613Z,98236.05
2023-04-15T13:54:08.849Z,98234.7
2023-04-15T13:55:24.623Z,98232.45
2023-04-15T13:56:33.298Z,98233.14
2023-04-15T13:57:39.038Z,98229.22
2023-04-15T13:58:44.226Z,98231.78
2023-04-15T13:59:49.472Z,98220.06
2023-04-15T14:00:54.694Z,98229.28
2023-04-15T14:02:00.181Z,98237.45
2023-04-15T14:03:05.792Z,98227.76
2023-04-15T14:04:11.943Z,98228.75
2023-04-15T14:05:17.408Z,98231.34
2023-04-15T14:06:22.660Z,98227.13
2023-04-15T14:07:27.867Z,98226.73
2023-04-15T14:08:33.062Z,98233.18
2023-04-15T14:09:44.426Z,98231.16
2023-04-15T14:10:49.647Z,98226.54
2023-04-15T14:11:54.838Z,98229.16
2023-04-15T14:13:00.064Z,98233.7
2023-04-15T14:14:05.799Z,98237.2
2023-04-15T14:15:11.265Z,98226.73
2023-04-15T14:16:16.491Z,98227.13
2023-04-15T14:17:21.862Z,98234.11
2023-04-15T14:18:27.092Z,98223.73
2023-04-15T14:19:32.327Z,98226.41
2023-04-15T14:20:37.523Z,98229.81
2023-04-15T14:21:42.693Z,98225.39
2023-04-15T14:22:47.895Z,98225.27
2023-04-15T14:23:53.160Z,98226.82
2023-04-15T14:24:58.339Z,98224.14
2023-04-15T14:26:03.559Z,98226.08
2023-04-15T14:27:08.795Z,98231.34
2023-04-15T14:28:13.986Z,98232.37
2023-04-15T14:29:19.240Z,98235.36
2023-04-15T14:30:24.452Z,98234.95
2023-04-15T14:31:29.788Z,98231.74
2023-04-15T14:32:35.095Z,98236.17
2023-04-15T14:33:40.368Z,98233.18
2023-04-15T14:34:45.586Z,98235.45
2023-04-15T14:35:50.785Z,98232.09
2023-04-15T14:36:56.007Z,98230.22
2023-04-15T14:38:01.180Z,98228.38
2023-04-15T14:39:06.888Z,98238.78
2023-04-15T14:40:12.644Z,98230.56
2023-04-15T14:41:17.848Z,98232.83
2023-04-15T14:42:23.077Z,98233.83
2023-04-15T14:43:28.288Z,98235.17
2023-04-15T14:44:33.597Z,98232.3
2023-04-15T14:45:40.412Z,98231.49
2023-04-15T14:46:49.383Z,98230.34
2023-04-15T14:47:54.809Z,98232.68
2023-04-15T14:49:00.313Z,98236.7
2023-04-15T14:50:06.029Z,98229
2023-04-15T14:51:11.395Z,98230.75
2023-04-15T14:52:16.583Z,98228.16
2023-04-15T14:53:21.870Z,98231.69
2023-04-15T14:54:27.064Z,98231.24
2023-04-15T14:55:32.285Z,98230.94
2023-04-15T14:56:37.647Z,98236.7
2023-04-15T14:57:43.037Z,98243.4
2023-04-15T14:58:48.245Z,98240.53
2023-04-15T14:59:53.590Z,98245.52
2023-04-15T15:00:58.896Z,98247.87
2023-04-15T15:02:04.400Z,98251.9
2023-04-15T15:03:09.987Z,98252.21
2023-04-15T15:04:15.500Z,98257.25
2023-04-15T15:05:21.124Z,98258.13
2023-04-15T15:06:26.620Z,98265.36
2023-04-15T15:07:32.052Z,98263.17
2023-04-15T15:08:37.272Z,98269.25
2023-04-15T15:09:42.454Z,98268.84
2023-04-15T15:10:50.962Z,98272.27
2023-04-15T15:11:56.251Z,98276.88
2023-04-15T15:13:02.217Z,98266.26
2023-04-15T15:14:07.618Z,98270.52
2023-04-15T15:15:29.384Z,98274.95
2023-04-15T15:16:34.704Z,98272.48
2023-04-15T15:17:40.066Z,98273.7
2023-04-15T15:18:45.282Z,98278.25
2023-04-15T15:19:50.509Z,98275.04
2023-04-15T15:20:55.706Z,98276.91
2023-04-15T15:22:00.875Z,98279.9
2023-04-15T15:23:06.137Z,98280.92
2023-04-15T15:24:11.388Z,98284.01
2023-04-15T15:25:16.726Z,98276.19
2023-04-15T15:26:21.938Z,98278.78
2023-04-15T15:27:27.108Z,98286.5
2023-04-15T15:28:32.266Z,98285.28
2023-04-15T15:29:37.449Z,98280.86
2023-04-15T15:30:42.659Z,98288.37
2023-04-15T15:31:48.103Z,98290.11
2023-04-15T15:32:53.493Z,98282.6
2023-04-15T15:33:58.840Z,98283.54
2023-04-15T15:35:04.020Z,98287.15
2023-04-15T15:36:09.191Z,98294.25
2023-04-15T15:37:14.357Z,98289.64
2023-04-15T15:38:19.554Z,98294.75
2023-04-15T15:39:24.779Z,98300.64
2023-04-15T15:40:29.976Z,98302.19
2023-04-15T15:41:35.196Z,98300.64
2023-04-15T15:42:40.421Z,98309.61
2023-04-15T15:43:45.615Z,98301.26
2023-04-15T15:44:50.803Z,98305.71
2023-04-15T15:45:56.010Z,98304.87
2023-04-15T15:47:01.484Z,98301.06
2023-04-15T15:48:06.947Z,98299.52
2023-04-15T15:49:12.229Z,98294.09
2023-04-15T15:50:17.444Z,98293.34
2023-04-15T15:51:22.627Z,98300.85
2023-04-15T15:52:27.822Z,98301.26
2023-04-15T15:53:33.016Z,98312.91
2023-04-15T15:54:38.188Z,98311.09
2023-04-15T15:55:43.386Z,98315.3
2023-04-15T15:56:48.586Z,98308.1
2023-04-15T15:57:53.825Z,98325.7
2023-04-15T15:58:59.003Z,98324.89
2023-04-15T16:00:13.903Z,98317.79
2023-04-15T16:01:19.270Z,98324.48
2023-04-15T16:03:58.637Z,98329.74
2023-04-15T16:05:04.200Z,98330.39
2023-04-15T16:06:09.391Z,98340.25
2023-04-15T16:07:14.575Z,98330.66
2023-04-15T16:08:19.784Z,98324.17
2023-04-15T16:09:25.042Z,98321.62
2023-04-15T16:10:30.329Z,98329.25
2023-04-15T16:11:35.563Z,98324.84
2023-04-15T16:12:40.777Z,98323.79
2023-04-15T16:13:46.083Z,98326.68
2023-04-15T16:14:51.281Z,98327.61
2023-04-15T16:15:56.503Z,98326.4
2023-04-15T16:17:01.719Z,98327.42
2023-04-15T16:18:06.965Z,98332.35
2023-04-15T16:19:12.160Z,98339.96
2023-04-15T16:20:17.346Z,98346.75